Time;durP1;ratioP1;P1;durP2;ratioP2;P2;SDS_P1;SDS_P2;PMS_P1;PMS_P2;Temp;Humidity;BMP_temperature;BMP_pressure;BME280_temperature;BME280_humidity;BME280_pressure;Samples;Min_cycle;Max_cycle;Signal;HPM_P1;HPM_P2
2022/01/01 00:00:42;;;;;;;;;;;;;;;14.87;72.71;101928.34;1036775;28;1374;-59
2022/01/01 00:01:32;;;;;;;;;;;;;;;14.87;72.63;101927.47;1036777;28;1386;-59
2022/01/01 00:02:23;;;;;;;;;;;;;;;14.86;72.59;101932.03;1036536;28;1607;-60
2022/01/01 00:03:13;;;;;;;;;;;;;;;14.86;72.50;101931.16;1039636;28;1439;-58
2022/01/01 00:04:03;;;;;;;;;;;;;;;14.87;72.87;101938.22;1038918;28;1601;-58
2022/01/01 00:04:55;;;;;;;;;;;;;;;14.87;72.85;101936.38;1036220;28;1246;-59
2022/01/01 00:05:46;;;;;;;;;;;;;;;14.89;72.71;101930.94;1037868;28;1452;-60
2022/01/01 00:06:36;;;;;;;;;;;;;;;14.87;72.97;101931.03;1036790;28;1444;-59
2022/01/01 00:07:26;;;;;;;;;;;;;;;14.86;72.87;101933.84;1036722;28;1471;-59
2022/01/01 00:08:17;;;;;;;;;;;;;;;14.85;72.76;101930.28;1037353;28;1567;-59
2022/01/01 00:09:07;;;;;;;;;;;;;;;14.85;72.93;101937.47;1036840;28;1596;-59
2022/01/01 00:09:58;;;;;;;;;;;;;;;14.86;72.87;101932.03;1036732;28;1560;-59
2022/01/01 00:10:48;;;;;;;;;;;;;;;14.84;72.92;101928.56;1036764;28;1406;-59
2022/01/01 00:11:38;;;;;;;;;;;;;;;14.85;72.88;101937.47;1036841;28;1505;-59
2022/01/01 00:12:29;;;;;;;;;;;;;;;14.84;73.45;101931.25;1036779;28;1482;-59
2022/01/01 00:13:19;;;;;;;;;;;;;;;14.85;72.89;101941.03;1036851;28;1488;-59
2022/01/01 00:14:10;;;;;;;;;;;;;;;14.85;72.81;101941.03;1035573;28;1464;-58
2022/01/01 00:15:00;;;;;;;;;;;;;;;14.84;72.72;101939.31;1036772;28;1567;-58
2022/01/01 00:15:50;;;;;;;;;;;;;;;14.84;72.90;101942.00;1037520;28;611;-59
2022/01/01 00:16:41;;;;;;;;;;;;;;;14.83;72.61;101937.59;1037589;28;685;-59
2022/01/01 00:17:31;;;;;;;;;;;;;;;14.82;72.78;101937.69;1037587;28;953;-59
2022/01/01 00:18:22;;;;;;;;;;;;;;;14.79;72.70;101941.41;1037421;28;1949;-59
2022/01/01 00:19:12;;;;;;;;;;;;;;;14.79;72.81;101936.06;1037446;28;728;-60
2022/01/01 00:20:03;;;;;;;;;;;;;;;14.79;72.95;101932.50;1037460;28;732;-60
2022/01/01 00:20:54;;;;;;;;;;;;;;;14.78;72.81;101936.16;1037479;28;641;-59
2022/01/01 00:21:44;;;;;;;;;;;;;;;14.76;73.16;101933.56;1033339;28;779;-60
2022/01/01 00:22:35;;;;;;;;;;;;;;;14.76;73.34;101933.56;1032899;28;936;-60
2022/01/01 00:23:25;;;;;;;;;;;;;;;14.77;73.32;101931.75;1032835;28;823;-60
2022/01/01 00:24:15;;;;;;;;;;;;;;;14.76;73.24;101943.44;1035349;28;2036;-60
2022/01/01 00:25:06;;;;;;;;;;;;;;;14.77;72.70;101934.44;1038389;28;676;-60
2022/01/01 00:25:56;;;;;;;;;;;;;;;14.76;72.67;101928.19;1036990;28;690;-59
2022/01/01 00:26:47;;;;;;;;;;;;;;;14.76;72.93;101928.19;1038430;28;747;-59
2022/01/01 00:27:37;;;;;;;;;;;;;;;14.75;73.00;101922.94;1038592;28;614;-60
2022/01/01 00:28:28;;;;;;;;;;;;;;;14.75;72.98;101925.59;1038486;28;743;-59
2022/01/01 00:29:18;;;;;;;;;;;;;;;14.75;72.71;101921.09;1038584;28;736;-60
2022/01/01 00:30:08;;;;;;;;;;;;;;;14.75;72.69;101921.09;1038508;28;626;-60
2022/01/01 00:30:59;;;;;;;;;;;;;;;14.75;73.15;101915.75;1038554;28;839;-59
2022/01/01 00:31:49;;;;;;;;;;;;;;;14.75;72.58;101926.47;1038664;28;626;-59
2022/01/01 00:32:40;;;;;;;;;;;;;;;14.76;73.01;101920.16;1038570;28;709;-58
2022/01/01 00:33:30;;;;;;;;;;;;;;;14.76;73.04;101919.28;1038682;28;726;-59
2022/01/01 00:34:21;;;;;;;;;;;;;;;14.76;72.82;101913.91;1038459;28;752;-59
2022/01/01 00:35:11;;;;;;;;;;;;;;;14.75;72.68;101918.41;1038557;28;913;-59
2022/01/01 00:36:02;;;;;;;;;;;;;;;14.74;72.59;101914.00;1038342;28;1966;-59
2022/01/01 00:36:52;;;;;;;;;;;;;;;14.73;72.92;101916.78;1038616;28;720;-59
2022/01/01 00:37:42;;;;;;;;;;;;;;;14.73;72.72;101917.66;1038578;28;756;-59
2022/01/01 00:38:33;;;;;;;;;;;;;;;14.73;72.45;101923.03;1038462;28;736;-59
2022/01/01 00:39:23;;;;;;;;;;;;;;;14.74;72.97;101916.69;1038554;28;860;-59
2022/01/01 00:40:14;;;;;;;;;;;;;;;14.74;72.81;101922.06;1038643;28;774;-59
2022/01/01 00:41:04;;;;;;;;;;;;;;;14.73;72.82;101912.28;1038692;28;614;-59
2022/01/01 00:41:54;;;;;;;;;;;;;;;14.74;72.98;101916.69;1038524;28;698;-59
2022/01/01 00:42:45;;;;;;;;;;;;;;;14.74;72.59;101913.16;1038420;28;697;-59
2022/01/01 00:43:35;;;;;;;;;;;;;;;14.75;72.99;101921.09;1038850;28;951;-59
2022/01/01 00:44:26;;;;;;;;;;;;;;;14.74;72.77;101930.13;1039281;28;825;-58
2022/01/01 00:45:16;;;;;;;;;;;;;;;14.74;72.60;101914.00;1039355;28;875;-59
2022/01/01 00:46:06;;;;;;;;;;;;;;;14.74;72.77;101918.50;1039021;28;1929;-59
2022/01/01 00:46:57;;;;;;;;;;;;;;;14.74;72.96;101919.38;1037551;28;749;-59
2022/01/01 00:47:48;;;;;;;;;;;;;;;14.74;72.91;101922.06;1037611;28;966;-58
2022/01/01 00:48:38;;;;;;;;;;;;;;;14.74;73.04;101924.75;1037606;28;1259;-60
2022/01/01 00:49:28;;;;;;;;;;;;;;;14.75;72.69;101921.09;1037117;28;806;-59
2022/01/01 00:50:19;;;;;;;;;;;;;;;14.75;72.66;101926.47;1037195;28;677;-60
2022/01/01 00:51:09;;;;;;;;;;;;;;;14.75;72.91;101929.16;1037629;28;681;-59
2022/01/01 00:52:00;;;;;;;;;;;;;;;14.75;72.97;101926.47;1037028;28;965;-60
2022/01/01 00:52:52;;;;;;;;;;;;;;;14.75;72.73;101926.47;1037588;28;701;-59
2022/01/01 00:53:42;;;;;;;;;;;;;;;14.76;72.64;101928.19;1037541;28;793;-60
2022/01/01 00:54:33;;;;;;;;;;;;;;;14.78;72.76;101934.31;1037026;28;1865;-59
2022/01/01 00:55:23;;;;;;;;;;;;;;;14.77;72.60;101929.06;1039399;28;732;-59
2022/01/01 00:56:13;;;;;;;;;;;;;;;14.77;72.34;101924.56;1039327;28;870;-59
2022/01/01 00:57:04;;;;;;;;;;;;;;;14.76;72.83;101924.66;1039115;28;747;-60
2022/01/01 00:57:54;;;;;;;;;;;;;;;14.75;72.66;101926.47;1039266;28;828;-59
2022/01/01 00:58:45;;;;;;;;;;;;;;;14.76;72.75;101928.19;1038876;28;789;-59
2022/01/01 00:59:35;;;;;;;;;;;;;;;14.76;72.61;101928.19;1039344;28;754;-59
2022/01/01 01:00:26;;;;;;;;;;;;;;;14.75;72.38;101926.47;1038650;28;790;-60
2022/01/01 01:01:16;;;;;;;;;;;;;;;14.77;72.68;101929.06;1039267;28;840;-59
2022/01/01 01:02:06;;;;;;;;;;;;;;;14.76;72.60;101924.66;1039262;28;844;-59
2022/01/01 01:02:57;;;;;;;;;;;;;;;14.76;72.36;101927.34;1039216;28;637;-59
2022/01/01 01:03:47;;;;;;;;;;;;;;;14.77;72.41;101929.06;1039444;28;732;-60
2022/01/01 01:04:38;;;;;;;;;;;;;;;14.77;72.96;101926.38;1039171;28;844;-59
2022/01/01 01:05:28;;;;;;;;;;;;;;;14.77;72.57;101923.69;1039235;28;1436;-59
2022/01/01 01:06:18;;;;;;;;;;;;;;;14.77;72.45;101923.69;1034281;28;860;-60
2022/01/01 01:07:12;;;;;;;;;;;;;;;14.77;73.05;101926.38;1033370;28;710;-59
2022/01/01 01:08:02;;;;;;;;;;;;;;;14.77;72.87;101931.75;1037536;28;708;-60
2022/01/01 01:08:54;;;;;;;;;;;;;;;14.75;73.02;101931.84;1039289;28;724;-59
2022/01/01 01:09:44;;;;;;;;;;;;;;;14.76;72.98;101932.69;1037442;28;800;-59
2022/01/01 01:10:35;;;;;;;;;;;;;;;14.76;72.72;101941.63;1039255;28;898;-58
2022/01/01 01:11:25;;;;;;;;;;;;;;;14.76;72.77;101932.69;1039230;28;791;-59
2022/01/01 01:12:20;;;;;;;;;;;;;;;14.77;73.08;101940.66;1039226;28;598;-59
2022/01/01 01:13:12;;;;;;;;;;;;;;;14.77;72.43;101937.97;1037511;28;665;-59
2022/01/01 01:14:08;;;;;;;;;;;;;;;14.77;72.78;101937.97;1037612;28;696;-59
2022/01/01 01:14:58;;;;;;;;;;;;;;;14.77;72.96;101934.44;1037551;28;789;-59
2022/01/01 01:15:48;;;;;;;;;;;;;;;14.77;73.21;101940.66;1039301;28;743;-59
2022/01/01 01:16:39;;;;;;;;;;;;;;;14.77;72.92;101940.66;1039081;28;636;-60
2022/01/01 01:17:29;;;;;;;;;;;;;;;14.77;72.45;101939.78;1039271;28;691;-59
2022/01/01 01:18:20;;;;;;;;;;;;;;;14.76;72.44;101933.56;1039161;28;1898;-59
2022/01/01 01:19:10;;;;;;;;;;;;;;;14.77;72.99;101934.44;1038988;28;824;-59
2022/01/01 01:20:00;;;;;;;;;;;;;;;14.76;72.81;101936.25;1039282;28;639;-59
2022/01/01 01:20:51;;;;;;;;;;;;;;;14.77;72.62;101937.09;1038724;28;1793;-59
2022/01/01 01:21:41;;;;;;;;;;;;;;;14.77;72.36;101929.91;1034651;28;695;-59
2022/01/01 01:22:32;;;;;;;;;;;;;;;14.77;72.51;101937.97;1033008;28;708;-59
2022/01/01 01:23:22;;;;;;;;;;;;;;;14.77;72.78;101940.66;1033364;28;880;-59
2022/01/01 01:24:13;;;;;;;;;;;;;;;14.78;72.83;101936.16;1032873;28;681;-60
2022/01/01 01:25:04;;;;;;;;;;;;;;;14.77;72.86;101940.66;1033451;28;843;-59
2022/01/01 01:25:56;;;;;;;;;;;;;;;14.77;72.70;101937.97;1037434;28;1789;-58
2022/01/01 01:26:49;;;;;;;;;;;;;;;14.75;72.89;101942.56;1037515;28;832;-58
2022/01/01 01:27:40;;;;;;;;;;;;;;;14.76;72.54;101949.66;1038998;28;2052;-59
2022/01/01 01:28:30;;;;;;;;;;;;;;;14.76;72.87;101946.13;1036895;28;783;-60
2022/01/01 01:29:21;;;;;;;;;;;;;;;14.77;72.79;101945.16;1037041;28;942;-59
2022/01/01 01:30:13;;;;;;;;;;;;;;;14.76;72.81;101952.34;1036920;28;780;-59
2022/01/01 01:31:03;;;;;;;;;;;;;;;14.75;72.60;101953.31;1037359;28;685;-59
2022/01/01 01:31:54;;;;;;;;;;;;;;;14.76;72.89;101965.75;1036934;28;682;-59
2022/01/01 01:32:44;;;;;;;;;;;;;;;14.74;72.91;101956.94;1037058;28;729;-59
2022/01/01 01:33:34;;;;;;;;;;;;;;;14.74;73.30;101959.63;1036916;28;812;-58
2022/01/01 01:34:25;;;;;;;;;;;;;;;14.74;73.17;101967.69;1036958;28;744;-59
2022/01/01 01:35:15;;;;;;;;;;;;;;;14.73;72.71;101954.34;1036813;28;700;-59
2022/01/01 01:36:06;;;;;;;;;;;;;;;14.74;72.97;101961.44;1036885;28;825;-59
2022/01/01 01:36:56;;;;;;;;;;;;;;;14.73;72.85;101963.28;1037087;28;618;-59
2022/01/01 01:37:46;;;;;;;;;;;;;;;14.72;72.73;101958.88;1036931;28;779;-59
2022/01/01 01:38:37;;;;;;;;;;;;;;;14.72;73.02;101956.19;1036993;28;715;-59
2022/01/01 01:39:27;;;;;;;;;;;;;;;14.72;72.90;101958.88;1037434;28;735;-58
2022/01/01 01:40:18;;;;;;;;;;;;;;;14.73;72.80;101962.41;1036882;28;700;-59
2022/01/01 01:41:08;;;;;;;;;;;;;;;14.73;72.87;101963.28;1036815;28;765;-59
2022/01/01 01:41:58;;;;;;;;;;;;;;;14.73;72.90;101960.59;1036878;28;721;-58
2022/01/01 01:42:49;;;;;;;;;;;;;;;14.72;72.58;101968.72;1037074;28;758;-59
2022/01/01 01:43:39;;;;;;;;;;;;;;;14.71;73.03;101965.19;1036751;28;741;-59
2022/01/01 01:44:32;;;;;;;;;;;;;;;14.70;73.02;101960.78;1037005;28;710;-59
2022/01/01 01:45:27;;;;;;;;;;;;;;;14.70;72.64;101960.78;1037213;28;1884;-59
2022/01/01 01:46:17;;;;;;;;;;;;;;;14.71;73.22;101951.78;1037058;28;1333;-59
2022/01/01 01:47:15;;;;;;;;;;;;;;;14.71;73.02;101954.47;1036948;28;669;-59
2022/01/01 01:48:05;;;;;;;;;;;;;;;14.73;72.35;101968.63;1037217;28;841;-59
2022/01/01 01:48:56;;;;;;;;;;;;;;;14.73;72.79;101962.41;1037363;28;1378;-60
2022/01/01 01:49:46;;;;;;;;;;;;;;;14.73;72.67;101963.28;1037308;28;748;-60
2022/01/01 01:50:37;;;;;;;;;;;;;;;14.72;72.70;101968.72;1036680;28;1021;-59
2022/01/01 01:51:27;;;;;;;;;;;;;;;14.71;72.76;101951.78;1037480;28;861;-60
2022/01/01 01:52:19;;;;;;;;;;;;;;;14.71;72.66;101957.13;1036972;28;777;-59
2022/01/01 01:53:10;;;;;;;;;;;;;;;14.71;72.95;101962.50;1037462;28;607;-59
2022/01/01 01:54:00;;;;;;;;;;;;;;;14.70;72.78;101955.41;1037336;28;642;-59
2022/01/01 01:54:50;;;;;;;;;;;;;;;14.70;72.90;101958.09;1036453;28;669;-59
2022/01/01 01:55:42;;;;;;;;;;;;;;;14.71;72.57;101958.97;1036784;28;733;-59
2022/01/01 01:56:32;;;;;;;;;;;;;;;14.71;72.95;101953.59;1033599;28;859;-59
2022/01/01 01:57:23;;;;;;;;;;;;;;;14.71;73.10;101950.91;1033083;28;749;-59
2022/01/01 01:58:13;;;;;;;;;;;;;;;14.72;72.62;101955.31;1037296;28;1972;-59
2022/01/01 01:59:03;;;;;;;;;;;;;;;14.71;72.83;101951.78;1036833;28;674;-59
2022/01/01 01:59:54;;;;;;;;;;;;;;;14.71;72.45;101950.91;1037003;28;635;-59
2022/01/01 02:01:08;;;;;;;;;;;;;;;14.71;72.67;101954.47;1037328;28;760;-59
2022/01/01 02:01:57;;;;;;;;;;;;;;;14.71;72.92;101949.09;1037404;28;694;-59
2022/01/01 02:02:48;;;;;;;;;;;;;;;14.73;72.72;101955.22;1036930;28;748;-59
2022/01/01 02:03:38;;;;;;;;;;;;;;;14.73;73.05;101952.53;1036548;28;2147;-59
2022/01/01 02:04:29;;;;;;;;;;;;;;;14.73;73.05;101959.72;1039123;28;746;-59
2022/01/01 02:05:19;;;;;;;;;;;;;;;14.73;72.58;101957.03;1038953;28;800;-60
2022/01/01 02:06:09;;;;;;;;;;;;;;;14.73;73.05;101947.16;1039005;28;713;-59
2022/01/01 02:07:00;;;;;;;;;;;;;;;14.73;72.52;101965.09;1038912;28;860;-59
2022/01/01 02:07:50;;;;;;;;;;;;;;;14.73;73.08;101959.72;1039109;28;634;-59
2022/01/01 02:08:41;;;;;;;;;;;;;;;14.72;73.09;101958.88;1038904;28;681;-59
2022/01/01 02:09:31;;;;;;;;;;;;;;;14.73;72.61;101955.22;1039063;28;701;-59
2022/01/01 02:10:22;;;;;;;;;;;;;;;14.73;73.06;101954.34;1039048;28;698;-59
2022/01/01 02:11:12;;;;;;;;;;;;;;;14.73;73.13;101957.91;1038710;28;816;-59
2022/01/01 02:12:02;;;;;;;;;;;;;;;14.73;72.48;101960.59;1039050;28;795;-59
2022/01/01 02:12:56;;;;;;;;;;;;;;;14.73;72.84;101944.50;1038486;28;1069;-59
2022/01/01 02:14:13;;;;;;;;;;;;;;;14.73;72.97;101963.28;1037154;28;815;-60
2022/01/01 02:17:17;;;;;;;;;;;;;;;14.73;73.02;101955.22;1037604;28;784;-59
2022/01/01 02:18:00;;;;;;;;;;;;;;;14.75;72.81;101969.41;1037845;28;692;-59
2022/01/01 02:18:50;;;;;;;;;;;;;;;14.74;73.03;101961.44;1039163;28;677;-59
2022/01/01 02:19:41;;;;;;;;;;;;;;;14.74;73.05;101966.81;1038907;28;768;-59
2022/01/01 02:20:31;;;;;;;;;;;;;;;14.74;72.91;101967.69;1038685;28;1356;-60
2022/01/01 02:21:21;;;;;;;;;;;;;;;14.74;73.07;101967.69;1038629;28;1811;-59
2022/01/01 02:22:12;;;;;;;;;;;;;;;14.73;72.80;101963.28;1036957;28;795;-59
2022/01/01 02:23:02;;;;;;;;;;;;;;;14.72;73.14;101971.41;1037115;28;2019;-59
2022/01/01 02:23:58;;;;;;;;;;;;;;;14.72;73.22;101966.91;1036738;28;867;-59
2022/01/01 02:24:48;;;;;;;;;;;;;;;14.72;73.06;101972.28;1037256;28;757;-59
2022/01/01 02:25:38;;;;;;;;;;;;;;;14.73;73.04;101965.09;1037159;28;781;-59
2022/01/01 02:26:29;;;;;;;;;;;;;;;14.72;72.93;101968.72;1036798;28;733;-60
2022/01/01 02:27:19;;;;;;;;;;;;;;;14.72;72.91;101964.22;1036669;28;526;-59
2022/01/01 02:28:10;;;;;;;;;;;;;;;14.73;72.96;101965.09;1036785;28;729;-59
2022/01/01 02:29:00;;;;;;;;;;;;;;;14.72;73.11;101966.06;1036789;28;676;-60
2022/01/01 02:29:50;;;;;;;;;;;;;;;14.71;72.71;101970.56;1036421;28;760;-60
2022/01/01 02:30:41;;;;;;;;;;;;;;;14.72;72.99;101966.91;1036213;28;697;-59
2022/01/01 02:31:31;;;;;;;;;;;;;;;14.71;73.34;101970.56;1035971;28;710;-60
2022/01/01 02:32:22;;;;;;;;;;;;;;;14.71;73.16;101973.22;1036517;28;1623;-58
2022/01/01 02:33:12;;;;;;;;;;;;;;;14.71;72.89;101969.69;1037274;28;723;-59
2022/01/01 02:34:03;;;;;;;;;;;;;;;14.70;73.29;101971.50;1037211;28;926;-59
2022/01/01 02:34:53;;;;;;;;;;;;;;;14.68;73.18;101970.78;1037277;28;783;-59
2022/01/01 02:35:43;;;;;;;;;;;;;;;14.69;73.07;101966.28;1036965;28;1292;-59
2022/01/01 02:36:34;;;;;;;;;;;;;;;14.69;72.66;101960.91;1037161;28;661;-59
2022/01/01 02:37:24;;;;;;;;;;;;;;;14.68;72.82;101956.50;1037271;28;650;-60
2022/01/01 02:38:15;;;;;;;;;;;;;;;14.69;73.38;101961.75;1037200;28;1967;-59
2022/01/01 02:39:06;;;;;;;;;;;;;;;14.69;73.33;101959.06;1037855;28;708;-60
2022/01/01 02:39:56;;;;;;;;;;;;;;;14.69;73.06;101958.22;1037241;28;788;-59
2022/01/01 02:40:46;;;;;;;;;;;;;;;14.69;72.89;101964.41;1037174;28;769;-59
2022/01/01 02:41:37;;;;;;;;;;;;;;;14.69;72.94;101953.69;1037259;28;827;-59
2022/01/01 02:42:27;;;;;;;;;;;;;;;14.69;73.06;101959.06;1037142;28;827;-59
2022/01/01 02:43:18;;;;;;;;;;;;;;;14.69;73.36;101948.31;1037265;28;744;-59
2022/01/01 02:44:08;;;;;;;;;;;;;;;14.69;73.20;101948.31;1033778;28;725;-60
2022/01/01 02:45:00;;;;;;;;;;;;;;;14.68;72.97;101954.69;1032677;28;818;-60
2022/01/01 02:45:50;;;;;;;;;;;;;;;14.68;72.89;101943.09;1033086;28;718;-60
2022/01/01 02:46:41;;;;;;;;;;;;;;;14.69;72.75;101948.31;1032686;28;886;-60
2022/01/01 02:47:31;;;;;;;;;;;;;;;14.68;72.71;101941.25;1033659;28;773;-60
2022/01/01 02:48:23;;;;;;;;;;;;;;;14.67;72.63;101947.59;1033520;28;823;-60
2022/01/01 02:49:13;;;;;;;;;;;;;;;14.68;72.69;101943.94;1033803;28;827;-59
2022/01/01 02:50:04;;;;;;;;;;;;;;;14.68;73.22;101941.25;1033710;28;809;-60
2022/01/01 02:50:54;;;;;;;;;;;;;;;14.69;72.68;101942.97;1033589;28;702;-61
2022/01/01 02:51:44;;;;;;;;;;;;;;;14.67;72.76;101944.03;1033730;28;701;-60
2022/01/01 02:52:35;;;;;;;;;;;;;;;14.67;72.88;101939.53;1033721;28;850;-61
2022/01/01 02:53:25;;;;;;;;;;;;;;;14.67;73.29;101938.69;1034399;28;727;-60
2022/01/01 02:54:16;;;;;;;;;;;;;;;14.68;72.59;101940.41;1033645;28;658;-60
2022/01/01 02:55:06;;;;;;;;;;;;;;;14.68;73.12;101935.91;1033576;28;749;-60
2022/01/01 02:55:56;;;;;;;;;;;;;;;14.69;72.81;101934.06;1033653;28;711;-60
2022/01/01 02:56:48;;;;;;;;;;;;;;;14.67;72.84;101928.81;1033442;28;961;-61
2022/01/01 02:57:39;;;;;;;;;;;;;;;14.67;72.68;101936.84;1034259;28;614;-61
2022/01/01 02:58:29;;;;;;;;;;;;;;;14.68;73.14;101935.91;1034333;28;1918;-60
2022/01/01 02:59:20;;;;;;;;;;;;;;;14.68;73.34;101933.22;1033641;28;847;-60
2022/01/01 03:00:10;;;;;;;;;;;;;;;14.68;72.81;101943.94;1033503;28;864;-60
2022/01/01 03:01:00;;;;;;;;;;;;;;;14.67;72.93;101942.22;1033674;28;840;-60
2022/01/01 03:01:51;;;;;;;;;;;;;;;14.68;73.09;101943.94;1033771;28;802;-60
2022/01/01 03:02:41;;;;;;;;;;;;;;;14.68;73.26;101943.94;1034156;28;844;-61
2022/01/01 03:03:32;;;;;;;;;;;;;;;14.69;73.20;101950.19;1033553;28;850;-60
2022/01/01 03:04:22;;;;;;;;;;;;;;;14.68;73.18;101949.31;1033584;28;646;-60
2022/01/01 03:05:13;;;;;;;;;;;;;;;14.68;73.10;101952.00;1033633;28;728;-61
2022/01/01 03:06:03;;;;;;;;;;;;;;;14.68;73.11;101946.63;1033491;28;760;-60
2022/01/01 03:06:55;;;;;;;;;;;;;;;14.68;72.62;101949.31;1033644;28;808;-60
2022/01/01 03:07:46;;;;;;;;;;;;;;;14.67;73.03;101947.59;1033631;28;689;-60
2022/01/01 03:08:36;;;;;;;;;;;;;;;14.67;73.12;101944.91;1033533;28;689;-60
2022/01/01 03:09:34;;;;;;;;;;;;;;;14.67;72.79;101933.31;1033501;28;834;-60
2022/01/01 03:10:24;;;;;;;;;;;;;;;14.67;72.98;101944.91;1033611;28;771;-60
2022/01/01 03:11:15;;;;;;;;;;;;;;;14.68;73.35;101945.78;1033525;28;661;-60
2022/01/01 03:12:05;;;;;;;;;;;;;;;14.67;73.19;101950.28;1034103;28;614;-60
2022/01/01 03:12:56;;;;;;;;;;;;;;;14.66;73.02;101947.69;1034182;28;638;-60
2022/01/01 03:13:46;;;;;;;;;;;;;;;14.66;73.24;101953.91;1033938;28;883;-60
2022/01/01 03:14:36;;;;;;;;;;;;;;;14.67;73.25;101958.31;1034246;28;666;-59
2022/01/01 03:15:27;;;;;;;;;;;;;;;14.67;72.72;101950.28;1034034;28;941;-60
2022/01/01 03:16:17;;;;;;;;;;;;;;;14.66;72.54;101948.53;1034115;28;701;-60
2022/01/01 03:17:08;;;;;;;;;;;;;;;14.67;73.39;101946.72;1034070;28;813;-59
2022/01/01 03:18:00;;;;;;;;;;;;;;;14.66;73.16;101953.91;1034246;28;953;-59
2022/01/01 03:18:52;;;;;;;;;;;;;;;14.66;72.64;101950.38;1033654;28;830;-59
2022/01/01 03:19:42;;;;;;;;;;;;;;;14.65;73.12;101946.81;1034186;28;1013;-59
2022/01/01 03:20:33;;;;;;;;;;;;;;;14.66;72.64;101942.31;1033997;28;1538;-59
2022/01/01 03:21:23;;;;;;;;;;;;;;;14.66;73.24;101950.38;1037526;28;1721;-59
2022/01/01 03:22:13;;;;;;;;;;;;;;;14.64;72.97;101942.41;1037707;28;751;-59
2022/01/01 03:23:04;;;;;;;;;;;;;;;14.64;72.82;101945.09;1037669;28;739;-59
2022/01/01 03:23:54;;;;;;;;;;;;;;;14.64;73.15;101934.38;1037660;28;814;-59
2022/01/01 03:24:45;;;;;;;;;;;;;;;14.65;72.76;101938.78;1037575;28;695;-59
2022/01/01 03:25:35;;;;;;;;;;;;;;;14.65;73.23;101940.59;1037576;28;705;-59
2022/01/01 03:26:26;;;;;;;;;;;;;;;14.64;72.77;101939.72;1037665;28;713;-59
2022/01/01 03:27:16;;;;;;;;;;;;;;;14.64;72.81;101936.19;1037723;28;673;-59
2022/01/01 03:28:07;;;;;;;;;;;;;;;14.63;73.26;101938.00;1037940;28;831;-60
2022/01/01 03:28:57;;;;;;;;;;;;;;;14.63;73.08;101939.84;1036842;28;682;-59
2022/01/01 03:29:48;;;;;;;;;;;;;;;14.63;73.41;101940.69;1036490;28;766;-59
2022/01/01 03:30:38;;;;;;;;;;;;;;;14.63;73.41;101938.00;1037577;28;811;-59
2022/01/01 03:31:28;;;;;;;;;;;;;;;14.63;73.31;101926.41;1037617;28;634;-59
2022/01/01 03:32:19;;;;;;;;;;;;;;;14.63;72.68;101924.59;1034898;28;1806;-59
2022/01/01 03:33:09;;;;;;;;;;;;;;;14.62;72.76;101924.69;1032758;28;756;-59
2022/01/01 03:34:00;;;;;;;;;;;;;;;14.63;72.79;101921.91;1036527;28;689;-59
2022/01/01 03:34:52;;;;;;;;;;;;;;;14.64;73.25;101933.50;1037566;28;714;-59
2022/01/01 03:35:42;;;;;;;;;;;;;;;14.65;73.46;101932.53;1037475;28;1048;-59
2022/01/01 03:36:32;;;;;;;;;;;;;;;14.65;72.98;101936.09;1037489;28;849;-59
2022/01/01 03:37:23;;;;;;;;;;;;;;;14.65;73.02;101930.72;1037577;28;673;-60
2022/01/01 03:38:13;;;;;;;;;;;;;;;14.65;72.85;101928.03;1037536;28;1957;-59
2022/01/01 03:39:04;;;;;;;;;;;;;;;14.65;73.00;101921.81;1037609;28;759;-59
2022/01/01 03:39:54;;;;;;;;;;;;;;;14.67;72.96;101933.31;1037648;28;751;-59
2022/01/01 03:40:45;;;;;;;;;;;;;;;14.66;72.94;101924.41;1037557;28;782;-59
2022/01/01 03:41:35;;;;;;;;;;;;;;;14.66;72.87;101932.44;1037618;28;633;-59
2022/01/01 03:42:25;;;;;;;;;;;;;;;14.67;73.49;101939.53;1037379;28;747;-59
2022/01/01 03:43:16;;;;;;;;;;;;;;;14.67;73.43;101928.81;1037565;28;650;-59
2022/01/01 03:44:06;;;;;;;;;;;;;;;14.68;72.87;101938.59;1037588;28;763;-59
2022/01/01 03:44:57;;;;;;;;;;;;;;;14.68;73.00;101941.25;1037587;28;892;-59
2022/01/01 03:45:47;;;;;;;;;;;;;;;14.67;73.37;101942.22;1037548;28;729;-59
2022/01/01 03:46:37;;;;;;;;;;;;;;;14.69;72.79;101942.13;1037578;28;642;-59
2022/01/01 03:47:30;;;;;;;;;;;;;;;14.69;73.12;101942.13;1037626;28;654;-59
2022/01/01 03:48:21;;;;;;;;;;;;;;;14.67;72.99;101939.53;1037641;28;727;-59
2022/01/01 03:49:11;;;;;;;;;;;;;;;14.67;73.33;101934.19;1037381;28;1201;-59
2022/01/01 03:50:01;;;;;;;;;;;;;;;14.67;72.89;101931.50;1037482;28;716;-59
2022/01/01 03:50:52;;;;;;;;;;;;;;;14.68;73.38;101935.91;1037484;28;1644;-59
2022/01/01 03:51:42;;;;;;;;;;;;;;;14.68;73.59;101933.22;1037608;28;727;-58
2022/01/01 03:52:34;;;;;;;;;;;;;;;14.68;73.34;101941.25;1037604;28;681;-59
2022/01/01 03:53:25;;;;;;;;;;;;;;;14.68;72.88;101941.25;1037569;28;920;-58
2022/01/01 03:54:16;;;;;;;;;;;;;;;14.69;72.94;101944.81;1037634;28;710;-59
2022/01/01 03:55:07;;;;;;;;;;;;;;;14.68;73.26;101943.94;1033460;28;773;-59
2022/01/01 03:55:58;;;;;;;;;;;;;;;14.70;73.19;101944.69;1033410;28;716;-59
2022/01/01 03:56:49;;;;;;;;;;;;;;;14.70;73.08;101944.69;1028672;28;814;-59
2022/01/01 03:57:39;;;;;;;;;;;;;;;14.70;72.67;101936.63;1029101;28;924;-59
2022/01/01 03:58:30;;;;;;;;;;;;;;;14.70;73.41;101939.31;1033332;28;1975;-59
2022/01/01 03:59:20;;;;;;;;;;;;;;;14.70;72.72;101925.91;1033450;28;704;-59
2022/01/01 04:00:14;;;;;;;;;;;;;;;14.71;72.75;101924.06;1033550;28;783;-59
2022/01/01 04:01:04;;;;;;;;;;;;;;;14.71;72.90;101926.75;1033439;28;770;-59
2022/01/01 04:01:55;;;;;;;;;;;;;;;14.71;73.39;101919.56;1033347;28;852;-58
2022/01/01 04:02:45;;;;;;;;;;;;;;;14.71;73.07;101924.94;1033475;28;649;-59
2022/01/01 04:03:36;;;;;;;;;;;;;;;14.71;73.11;101922.25;1033478;28;855;-59
2022/01/01 04:04:26;;;;;;;;;;;;;;;14.71;73.38;101933.00;1033539;28;697;-59
2022/01/01 04:05:17;;;;;;;;;;;;;;;14.69;73.14;101926.84;1033440;28;756;-59
2022/01/01 04:06:07;;;;;;;;;;;;;;;14.71;73.07;101924.94;1033378;28;762;-58
2022/01/01 04:06:58;;;;;;;;;;;;;;;14.70;73.40;101923.22;1033498;28;812;-59
2022/01/01 04:07:48;;;;;;;;;;;;;;;14.70;72.81;101919.66;1033343;28;948;-59
2022/01/01 04:08:38;;;;;;;;;;;;;;;14.70;73.32;101923.22;1033479;28;636;-59
2022/01/01 04:09:29;;;;;;;;;;;;;;;14.71;73.30;101916.88;1033501;28;634;-59
2022/01/01 04:10:19;;;;;;;;;;;;;;;14.71;73.64;101916.88;1033313;28;794;-59
2022/01/01 04:11:10;;;;;;;;;;;;;;;14.71;73.06;101908.84;1033394;28;780;-59
2022/01/01 04:12:00;;;;;;;;;;;;;;;14.71;73.35;101924.06;1033502;28;733;-59
2022/01/01 04:12:51;;;;;;;;;;;;;;;14.71;72.74;101929.44;1029131;28;811;-60
2022/01/01 04:13:41;;;;;;;;;;;;;;;14.71;73.33;101934.81;1029742;28;638;-59
2022/01/01 04:14:31;;;;;;;;;;;;;;;14.70;72.76;101938.44;1034023;28;630;-59
2022/01/01 04:15:22;;;;;;;;;;;;;;;14.71;73.39;101940.19;1033528;28;736;-60
2022/01/01 04:16:12;;;;;;;;;;;;;;;14.69;73.28;101934.91;1033482;28;748;-59
2022/01/01 04:17:03;;;;;;;;;;;;;;;14.70;72.95;101925.03;1033407;28;734;-59
2022/01/01 04:17:58;;;;;;;;;;;;;;;14.69;73.17;101921.50;1033407;28;740;-59
2022/01/01 04:18:48;;;;;;;;;;;;;;;14.70;73.26;101933.09;1034170;28;780;-60
2022/01/01 04:19:42;;;;;;;;;;;;;;;14.69;73.39;101934.91;1034335;28;626;-59
2022/01/01 04:20:32;;;;;;;;;;;;;;;14.70;73.02;101939.31;1033962;28;1060;-60
2022/01/01 04:21:23;;;;;;;;;;;;;;;14.69;73.24;101932.22;1038227;28;1535;-59
2022/01/01 04:22:13;;;;;;;;;;;;;;;14.69;73.13;101937.59;1038419;28;839;-59
2022/01/01 04:23:03;;;;;;;;;;;;;;;14.69;73.21;101940.28;1038281;28;853;-59
2022/01/01 04:23:54;;;;;;;;;;;;;;;14.70;73.35;101943.81;1038335;28;786;-58
2022/01/01 04:24:44;;;;;;;;;;;;;;;14.69;73.31;101942.97;1038337;28;747;-60
2022/01/01 04:25:35;;;;;;;;;;;;;;;14.70;73.09;101947.38;1038077;28;738;-58
2022/01/01 04:26:25;;;;;;;;;;;;;;;14.71;73.19;101945.53;1038231;28;760;-59
2022/01/01 04:27:16;;;;;;;;;;;;;;;14.68;73.16;101943.94;1038464;28;977;-58
2022/01/01 04:28:06;;;;;;;;;;;;;;;14.69;73.34;101939.44;1038283;28;724;-59
2022/01/01 04:28:56;;;;;;;;;;;;;;;14.68;73.55;101933.22;1038223;28;945;-60
2022/01/01 04:29:47;;;;;;;;;;;;;;;14.68;73.84;101941.25;1034679;28;729;-59